createdAt,value
2017-05-03T00:01:02.060Z,8.10
2017-05-03T00:03:29.774Z,10.52
2017-05-03T00:05:57.317Z,8.93
2017-05-03T00:08:24.924Z,8.23
2017-05-03T00:10:52.476Z,7.72
2017-05-03T00:13:20.112Z,7.50
2017-05-03T00:15:47.613Z,8.23
2017-05-03T00:18:15.891Z,6.78
2017-05-03T00:20:43.403Z,6.37
2017-05-03T00:23:10.913Z,7.38
2017-05-03T00:25:39.399Z,9.03
2017-05-03T00:28:06.938Z,6.65
2017-05-03T00:30:35.263Z,7.10
2017-05-03T00:33:04.198Z,7.58
2017-05-03T00:35:31.800Z,6.28
2017-05-03T00:37:59.375Z,6.98
2017-05-03T00:40:26.879Z,5.93
2017-05-03T00:42:55.382Z,7.48
2017-05-03T00:45:22.983Z,7.22
2017-05-03T00:47:50.772Z,7.68
2017-05-03T00:50:18.488Z,7.80
2017-05-03T00:52:45.979Z,7.30
2017-05-03T00:55:13.539Z,5.22
2017-05-03T00:57:41.100Z,6.60
2017-05-03T01:00:08.623Z,5.90
2017-05-03T01:02:36.292Z,6.37
2017-05-03T01:05:03.814Z,9.57
2017-05-03T01:07:31.524Z,6.75
2017-05-03T01:09:59.277Z,6.95
2017-05-03T01:12:26.835Z,6.07
2017-05-03T01:14:54.523Z,8.88
2017-05-03T01:17:22.241Z,9.18
2017-05-03T01:19:49.752Z,6.82
2017-05-03T01:22:18.027Z,7.97
2017-05-03T01:24:46.634Z,6.10
2017-05-03T01:27:14.350Z,6.73
2017-05-03T01:29:41.997Z,6.33
2017-05-03T01:32:09.740Z,7.30
2017-05-03T01:34:37.268Z,6.30
2017-05-03T01:37:04.945Z,7.67
2017-05-03T01:39:32.616Z,6.20
2017-05-03T01:42:00.184Z,8.90
2017-05-03T01:44:27.684Z,5.58
2017-05-03T01:46:56.188Z,5.07
2017-05-03T01:49:23.849Z,5.05
2017-05-03T01:51:51.596Z,6.50
2017-05-03T01:54:19.941Z,5.62
2017-05-03T01:56:47.469Z,4.90
2017-05-03T01:59:15.258Z,4.65
2017-05-03T02:01:42.813Z,6.17
2017-05-03T02:04:10.353Z,5.93
2017-05-03T02:06:37.864Z,6.22
2017-05-03T02:09:05.628Z,5.38
2017-05-03T02:11:33.403Z,6.63
2017-05-03T02:14:01.117Z,7.38
2017-05-03T02:16:28.655Z,5.48
2017-05-03T02:18:56.415Z,5.18
2017-05-03T02:21:24.247Z,6.30
2017-05-03T02:23:51.899Z,6.35
2017-05-03T02:26:19.480Z,10.73
2017-05-03T02:28:47.445Z,5.60
2017-05-03T02:31:14.967Z,8.58
2017-05-03T02:33:42.626Z,8.40
2017-05-03T02:36:10.171Z,6.27
2017-05-03T02:38:37.920Z,5.33
2017-05-03T02:41:05.742Z,7.15
2017-05-03T02:43:33.273Z,6.40
2017-05-03T02:46:00.845Z,5.65
2017-05-03T02:48:28.579Z,4.70
2017-05-03T02:50:57.197Z,9.47
2017-05-03T02:53:24.974Z,5.60
2017-05-03T02:55:52.483Z,7.78
2017-05-03T02:58:20.851Z,5.72
2017-05-03T03:00:48.387Z,5.97
2017-05-03T03:03:15.981Z,6.65
2017-05-03T03:05:43.671Z,9.07
2017-05-03T03:08:11.283Z,6.07
2017-05-03T03:10:38.780Z,7.57
2017-05-03T03:13:06.337Z,6.92
2017-05-03T03:15:33.984Z,6.22
2017-05-03T03:18:02.519Z,7.72
2017-05-03T03:20:32.040Z,6.37
2017-05-03T03:22:59.593Z,6.42
2017-05-03T03:25:27.125Z,10.42
2017-05-03T03:27:54.633Z,9.62
2017-05-03T03:30:22.974Z,7.15
2017-05-03T03:32:50.610Z,5.70
2017-05-03T03:35:18.385Z,9.23
2017-05-03T03:37:46.144Z,5.67
2017-05-03T03:40:13.710Z,9.38
2017-05-03T03:42:41.316Z,10.63
2017-05-03T03:45:09.663Z,4.90
2017-05-03T03:47:37.175Z,9.82
2017-05-03T03:50:04.740Z,14.00
2017-05-03T03:52:32.335Z,10.68
2017-05-03T03:55:00.649Z,9.27
2017-05-03T03:57:28.185Z,8.82
2017-05-03T03:59:56.491Z,9.57
2017-05-03T04:02:24.252Z,11.07
2017-05-03T04:04:52.580Z,10.25
2017-05-03T04:07:20.114Z,9.62
2017-05-03T04:09:47.752Z,11.75
2017-05-03T04:12:15.471Z,6.55
2017-05-03T04:14:44.065Z,8.18
2017-05-03T04:17:12.395Z,8.43
2017-05-03T04:19:40.098Z,10.78
2017-05-03T04:22:08.405Z,13.92
2017-05-03T04:24:36.340Z,10.15
2017-05-03T04:27:03.836Z,12.53
2017-05-03T04:29:31.472Z,13.73
2017-05-03T04:31:58.963Z,11.20
2017-05-03T04:34:26.509Z,10.17
2017-05-03T04:36:55.275Z,10.28
2017-05-03T04:39:22.780Z,11.70
2017-05-03T04:41:50.353Z,10.83
2017-05-03T04:44:18.097Z,11.85
2017-05-03T04:46:45.774Z,12.72
2017-05-03T04:49:13.268Z,9.88
2017-05-03T04:51:40.860Z,9.20
2017-05-03T04:54:08.397Z,11.20
2017-05-03T04:56:36.190Z,9.70
2017-05-03T04:59:03.946Z,9.55
2017-05-03T05:01:31.504Z,12.00
2017-05-03T05:03:58.991Z,7.88
2017-05-03T05:06:26.616Z,9.68
2017-05-03T05:08:54.300Z,9.15
2017-05-03T05:11:22.014Z,8.67
2017-05-03T05:13:49.556Z,8.32
2017-05-03T05:16:17.324Z,7.62
2017-05-03T05:18:44.850Z,9.67
2017-05-03T05:21:12.422Z,8.90
2017-05-03T05:23:40.989Z,7.68
2017-05-03T05:26:08.496Z,9.88
2017-05-03T05:28:36.256Z,10.58
2017-05-03T05:31:03.872Z,13.15
2017-05-03T05:33:32.184Z,9.10
2017-05-03T05:36:00.085Z,8.08
2017-05-03T05:38:27.683Z,8.32
2017-05-03T05:40:56.060Z,7.77
2017-05-03T05:43:23.578Z,8.92
2017-05-03T05:45:51.135Z,7.72
2017-05-03T05:48:18.734Z,8.90
2017-05-03T05:50:46.412Z,7.20
2017-05-03T05:53:14.131Z,9.57
2017-05-03T05:55:41.745Z,9.52
2017-05-03T05:58:09.280Z,9.67
2017-05-03T06:00:37.060Z,12.38
2017-05-03T06:03:04.647Z,14.78
2017-05-03T06:05:32.256Z,9.83
2017-05-03T06:08:00.570Z,10.73
2017-05-03T06:10:28.142Z,7.70
2017-05-03T06:12:55.717Z,9.67
2017-05-03T06:15:23.244Z,9.72
2017-05-03T06:17:50.788Z,10.15
2017-05-03T06:20:18.286Z,11.97
2017-05-03T06:22:45.786Z,11.58
2017-05-03T06:25:13.440Z,11.95
2017-05-03T06:27:40.984Z,11.50
2017-05-03T06:30:08.594Z,17.32
2017-05-03T06:32:36.363Z,29.93
2017-05-03T06:35:03.904Z,26.58
2017-05-03T06:37:31.440Z,14.30
2017-05-03T06:39:58.980Z,15.00
2017-05-03T06:42:27.308Z,8.95
2017-05-03T06:44:54.880Z,9.90
2017-05-03T06:47:22.379Z,8.90
2017-05-03T06:49:49.976Z,7.15
2017-05-03T06:52:17.748Z,12.37
2017-05-03T06:54:46.069Z,7.63
2017-05-03T06:57:14.419Z,6.27
2017-05-03T06:59:41.915Z,7.03
2017-05-03T07:02:09.471Z,5.53
2017-05-03T07:04:36.971Z,6.80
2017-05-03T07:07:04.612Z,2.97
2017-05-03T07:09:32.128Z,5.47
2017-05-03T07:12:00.464Z,3.64
2017-05-03T07:14:27.968Z,3.44
2017-05-03T07:16:55.485Z,3.84
2017-05-03T07:19:23.031Z,3.00
2017-05-03T07:21:50.576Z,3.67
2017-05-03T07:24:18.073Z,3.30
2017-05-03T07:26:45.691Z,2.12
2017-05-03T07:29:13.308Z,3.03
2017-05-03T07:31:41.632Z,2.60
2017-05-03T07:34:09.157Z,1.65
2017-05-03T07:36:36.701Z,2.40
2017-05-03T07:39:04.961Z,2.10
2017-05-03T07:41:33.458Z,2.27
2017-05-03T07:44:01.777Z,2.55
2017-05-03T07:46:29.612Z,1.88
2017-05-03T07:48:57.185Z,1.77
2017-05-03T07:51:24.689Z,1.52
2017-05-03T07:53:52.325Z,2.38
2017-05-03T07:56:19.881Z,2.55
2017-05-03T07:58:48.171Z,2.50
2017-05-03T08:01:15.664Z,1.20
2017-05-03T08:03:44.223Z,2.30
2017-05-03T08:06:11.800Z,2.20
2017-05-03T08:08:40.092Z,2.48
2017-05-03T08:11:07.659Z,1.72
2017-05-03T08:13:36.001Z,1.75
2017-05-03T08:16:04.289Z,2.25
2017-05-03T08:18:32.131Z,6.07
2017-05-03T08:20:59.672Z,1.53
2017-05-03T08:23:27.191Z,1.48
2017-05-03T08:25:55.779Z,1.42
2017-05-03T08:28:23.297Z,3.28
2017-05-03T08:30:50.868Z,4.27
2017-05-03T08:33:18.598Z,1.87
2017-05-03T08:35:46.302Z,2.43
2017-05-03T08:38:14.023Z,1.48
2017-05-03T08:40:41.799Z,3.18
2017-05-03T08:43:10.078Z,1.62
2017-05-03T08:45:37.592Z,2.83
2017-05-03T08:48:05.095Z,1.60
2017-05-03T08:53:08.791Z,1.60
2017-05-03T08:55:36.375Z,2.62
2017-05-03T08:58:03.876Z,3.83
2017-05-03T09:00:31.443Z,2.45
2017-05-03T09:02:58.963Z,1.92
2017-05-03T09:05:26.895Z,2.35
2017-05-03T09:07:54.980Z,3.88
2017-05-03T09:10:22.569Z,2.15
2017-05-03T09:12:50.182Z,1.88
2017-05-03T09:15:18.461Z,2.80
2017-05-03T09:17:46.785Z,1.50
2017-05-03T09:20:14.316Z,2.37
2017-05-03T09:22:42.021Z,2.53
2017-05-03T09:25:09.661Z,2.38
2017-05-03T09:27:37.216Z,1.90
2017-05-03T09:30:04.843Z,3.63
2017-05-03T09:32:32.561Z,2.52
2017-05-03T09:35:00.355Z,2.90
2017-05-03T09:37:28.624Z,3.53
2017-05-03T09:39:56.970Z,3.15
2017-05-03T09:42:24.608Z,1.67
2017-05-03T09:44:52.145Z,1.58
2017-05-03T09:47:19.686Z,2.60
2017-05-03T09:49:47.998Z,1.43
2017-05-03T09:52:16.929Z,1.68
2017-05-03T09:54:44.432Z,1.82
2017-05-03T09:57:11.949Z,2.68
2017-05-03T09:59:40.562Z,1.98
2017-05-03T10:02:08.079Z,2.00
2017-05-03T10:04:35.747Z,1.80
2017-05-03T10:07:03.268Z,2.82
2017-05-03T10:09:30.831Z,2.77
2017-05-03T10:11:58.371Z,2.12
2017-05-03T10:14:25.868Z,2.23
2017-05-03T10:16:53.434Z,1.82
2017-05-03T10:19:21.832Z,1.82
2017-05-03T10:21:50.107Z,2.37
2017-05-03T10:24:18.516Z,2.17
2017-05-03T10:26:46.322Z,2.27
2017-05-03T10:29:14.695Z,2.48
2017-05-03T10:31:42.252Z,2.20
2017-05-03T10:34:10.087Z,2.25
2017-05-03T10:36:37.640Z,3.05
2017-05-03T10:39:05.431Z,2.25
2017-05-03T10:41:33.175Z,2.77
2017-05-03T10:44:00.919Z,2.52
2017-05-03T10:46:28.460Z,2.68
2017-05-03T10:48:56.271Z,1.97
2017-05-03T10:51:23.791Z,5.52
2017-05-03T10:53:51.497Z,2.63
2017-05-03T10:56:19.298Z,3.20
2017-05-03T10:58:48.511Z,4.05
2017-05-03T11:01:17.058Z,2.95
2017-05-03T11:03:45.318Z,2.57
2017-05-03T11:06:12.899Z,2.65
2017-05-03T11:08:41.189Z,2.20
2017-05-03T11:11:08.712Z,2.82
2017-05-03T11:13:36.496Z,2.42
2017-05-03T11:16:04.567Z,3.50
2017-05-03T11:18:32.900Z,4.17
2017-05-03T11:21:00.396Z,6.00
2017-05-03T11:23:28.688Z,3.73
2017-05-03T11:25:56.218Z,4.12
2017-05-03T11:28:24.544Z,4.22
2017-05-03T11:30:52.078Z,4.77
2017-05-03T11:33:19.847Z,3.62
2017-05-03T11:35:47.379Z,3.43
2017-05-03T11:38:15.655Z,4.33
2017-05-03T11:40:43.918Z,4.37
2017-05-03T11:43:12.269Z,5.67
2017-05-03T11:45:39.811Z,4.18
2017-05-03T11:48:07.531Z,3.25
2017-05-03T11:50:35.054Z,3.38
2017-05-03T11:53:02.732Z,5.63
2017-05-03T11:55:31.031Z,4.43
2017-05-03T11:58:00.120Z,3.58
2017-05-03T12:00:28.071Z,5.33
2017-05-03T12:02:56.516Z,5.65
2017-05-03T12:05:24.420Z,5.83
2017-05-03T12:07:52.695Z,8.78
2017-05-03T12:10:20.979Z,5.65
2017-05-03T12:12:48.607Z,4.62
2017-05-03T12:15:17.066Z,4.23
2017-05-03T12:17:44.965Z,4.35
2017-05-03T12:20:13.232Z,4.67
2017-05-03T12:22:40.823Z,4.78
2017-05-03T12:25:08.487Z,6.28
2017-05-03T12:27:36.002Z,5.57
2017-05-03T12:30:03.517Z,6.00
2017-05-03T12:32:31.172Z,6.27
2017-05-03T12:34:58.929Z,6.58
2017-05-03T12:37:26.483Z,8.50
2017-05-03T12:39:54.016Z,6.70
2017-05-03T12:42:22.475Z,7.87
2017-05-03T12:44:50.109Z,9.33
2017-05-03T12:47:17.643Z,7.23
2017-05-03T12:49:45.195Z,7.77
2017-05-03T12:52:12.719Z,7.80
2017-05-03T12:54:41.027Z,8.88
2017-05-03T12:57:08.616Z,7.00
2017-05-03T12:59:36.129Z,9.37
2017-05-03T13:02:06.459Z,11.03
2017-05-03T13:04:34.191Z,11.77
2017-05-03T13:07:02.508Z,10.47
2017-05-03T13:09:30.068Z,7.38
2017-05-03T13:11:57.564Z,8.90
2017-05-03T13:14:25.832Z,8.97
2017-05-03T13:16:53.456Z,8.25
2017-05-03T13:19:21.089Z,9.65
2017-05-03T13:21:49.436Z,12.00
2017-05-03T13:24:17.060Z,10.37
2017-05-03T13:26:44.581Z,7.53
2017-05-03T13:29:12.107Z,9.52
2017-05-03T13:31:39.656Z,8.63
2017-05-03T13:34:07.155Z,5.67
2017-05-03T13:36:34.705Z,8.02
2017-05-03T13:39:02.972Z,10.97
2017-05-03T13:41:31.532Z,10.15
2017-05-03T13:43:59.107Z,12.25
2017-05-03T13:46:27.404Z,11.12
2017-05-03T13:48:54.908Z,8.05
2017-05-03T13:51:22.511Z,10.85
2017-05-03T13:53:51.012Z,7.93
2017-05-03T13:56:18.724Z,14.37
2017-05-03T13:58:46.668Z,10.78
2017-05-03T14:01:14.168Z,14.03
2017-05-03T14:03:42.504Z,6.63
2017-05-03T14:06:10.004Z,12.03
2017-05-03T14:08:38.341Z,12.32
2017-05-03T14:11:05.909Z,12.97
2017-05-03T14:13:33.428Z,11.20
2017-05-03T14:16:00.962Z,11.25
2017-05-03T14:18:28.496Z,14.52
2017-05-03T14:20:56.757Z,13.87
2017-05-03T14:23:24.530Z,12.60
2017-05-03T14:25:52.275Z,17.42
2017-05-03T14:28:20.115Z,15.05
2017-05-03T14:30:47.802Z,22.72
2017-05-03T14:33:15.788Z,20.28
2017-05-03T14:35:44.089Z,24.33
2017-05-03T14:38:11.612Z,25.00
2017-05-03T14:40:39.398Z,22.90
2017-05-03T14:43:07.688Z,21.80
2017-05-03T14:45:35.181Z,22.93
2017-05-03T14:48:02.700Z,26.07
2017-05-03T14:50:30.196Z,24.00
2017-05-03T14:52:57.796Z,32.25
2017-05-03T14:55:25.383Z,26.90
2017-05-03T14:57:52.944Z,23.92
2017-05-03T15:00:20.442Z,25.25
2017-05-03T15:02:47.949Z,24.23
2017-05-03T15:05:15.475Z,23.73
2017-05-03T15:07:43.972Z,25.37
2017-05-03T15:10:11.554Z,22.87
2017-05-03T15:12:39.096Z,20.25
2017-05-03T15:15:06.627Z,19.55
2017-05-03T15:17:34.939Z,26.40
2017-05-03T15:20:02.531Z,26.98
2017-05-03T15:22:30.062Z,22.40
2017-05-03T15:24:57.712Z,25.83
2017-05-03T15:27:25.512Z,24.58
2017-05-03T15:29:53.083Z,20.43
2017-05-03T15:32:20.648Z,23.57
2017-05-03T15:34:48.198Z,20.05
2017-05-03T15:37:15.976Z,21.23
2017-05-03T15:39:44.595Z,23.40
2017-05-03T15:42:12.260Z,23.15
2017-05-03T15:44:40.040Z,22.12
2017-05-03T15:47:07.563Z,21.62
2017-05-03T15:49:35.116Z,19.50
2017-05-03T15:52:02.702Z,20.05
2017-05-03T15:54:30.462Z,22.52
2017-05-03T15:56:57.983Z,17.32
2017-05-03T15:59:26.295Z,18.77
2017-05-03T16:01:53.928Z,20.33
2017-05-03T16:04:21.836Z,24.25
2017-05-03T16:06:49.356Z,18.68
2017-05-03T16:09:17.299Z,17.78
2017-05-03T16:11:45.609Z,20.22
2017-05-03T16:14:13.181Z,17.27
2017-05-03T16:16:40.699Z,17.35
2017-05-03T16:19:09.024Z,17.08
2017-05-03T16:21:37.091Z,20.18
2017-05-03T16:24:04.615Z,17.72
2017-05-03T16:26:32.372Z,18.48
2017-05-03T16:28:59.912Z,19.30
2017-05-03T16:31:28.208Z,19.35
2017-05-03T16:33:55.724Z,16.60
2017-05-03T16:36:23.276Z,21.65
2017-05-03T16:38:51.694Z,19.32
2017-05-03T16:41:19.191Z,18.35
2017-05-03T16:43:46.897Z,15.72
2017-05-03T16:46:15.440Z,16.27
2017-05-03T16:48:42.981Z,17.30
2017-05-03T16:51:10.484Z,19.18
2017-05-03T16:53:38.203Z,17.73
2017-05-03T16:56:05.932Z,16.98
2017-05-03T16:58:33.431Z,19.45
2017-05-03T17:01:01.006Z,19.63
2017-05-03T17:03:28.586Z,19.47
2017-05-03T17:05:56.900Z,22.60
2017-05-03T17:08:24.688Z,19.68
2017-05-03T17:10:52.499Z,20.58
2017-05-03T17:13:20.791Z,19.15
2017-05-03T17:15:48.375Z,24.52
2017-05-03T17:18:16.025Z,25.08
2017-05-03T17:20:43.551Z,22.57
2017-05-03T17:23:11.811Z,22.62
2017-05-03T17:25:39.336Z,22.17
2017-05-03T17:28:06.940Z,19.27
2017-05-03T17:30:34.501Z,19.78
2017-05-03T17:33:02.144Z,23.32
2017-05-03T17:35:30.678Z,24.58
2017-05-03T17:37:58.207Z,22.12
2017-05-03T17:40:25.742Z,20.48
2017-05-03T17:42:54.011Z,21.58
2017-05-03T17:45:22.279Z,27.18
2017-05-03T17:47:49.833Z,21.68
2017-05-03T17:50:17.376Z,21.67
2017-05-03T17:52:44.961Z,20.17
2017-05-03T17:55:13.219Z,23.17
2017-05-03T17:57:40.781Z,26.58
2017-05-03T18:00:08.279Z,26.78
2017-05-03T18:02:35.879Z,24.72
2017-05-03T18:05:03.599Z,27.98
2017-05-03T18:07:31.133Z,26.47
2017-05-03T18:09:59.444Z,27.50
2017-05-03T18:12:27.080Z,27.88
2017-05-03T18:14:54.616Z,27.08
2017-05-03T18:17:23.011Z,23.93
2017-05-03T18:19:51.315Z,28.97
2017-05-03T18:22:18.832Z,28.20
2017-05-03T18:24:47.215Z,25.60
2017-05-03T18:27:15.616Z,28.10
2017-05-03T18:29:43.193Z,27.52
2017-05-03T18:32:11.171Z,32.92
2017-05-03T18:34:38.739Z,30.98
2017-05-03T18:37:06.501Z,33.35
2017-05-03T18:39:34.411Z,33.25
2017-05-03T18:42:01.903Z,32.03
2017-05-03T18:44:29.474Z,33.70
2017-05-03T18:46:57.002Z,35.47
2017-05-03T18:49:24.565Z,37.00
2017-05-03T18:51:52.166Z,35.43
2017-05-03T18:54:20.446Z,37.03
2017-05-03T18:56:48.771Z,37.93
2017-05-03T18:59:16.337Z,35.38
2017-05-03T19:01:43.896Z,38.30
2017-05-03T19:04:11.443Z,37.30
2017-05-03T19:06:40.085Z,39.12
2017-05-03T19:09:08.421Z,38.88
2017-05-03T19:11:36.045Z,46.58
2017-05-03T19:14:03.659Z,43.07
2017-05-03T19:16:31.193Z,45.57
2017-05-03T19:18:58.694Z,44.67
2017-05-03T19:21:26.989Z,44.73
2017-05-03T19:23:54.520Z,47.40
2017-05-03T19:26:22.823Z,48.33
2017-05-03T19:28:50.449Z,47.27
2017-05-03T19:31:17.990Z,46.05
2017-05-03T19:33:45.610Z,52.82
2017-05-03T19:36:13.198Z,47.42
2017-05-03T19:38:40.698Z,50.58
2017-05-03T19:41:08.238Z,52.57
2017-05-03T19:43:35.748Z,54.13
2017-05-03T19:46:03.480Z,50.38
2017-05-03T19:48:31.060Z,47.67
2017-05-03T19:50:58.624Z,46.55
2017-05-03T19:53:26.202Z,53.55
2017-05-03T19:55:53.943Z,50.42
2017-05-03T19:58:21.502Z,49.63
2017-05-03T20:00:49.428Z,50.07
2017-05-03T20:03:17.736Z,53.53
2017-05-03T20:05:45.487Z,53.72
2017-05-03T20:08:13.110Z,50.37
2017-05-03T20:10:40.615Z,58.23
2017-05-03T20:13:08.266Z,53.58
2017-05-03T20:15:35.799Z,48.58
2017-05-03T20:18:04.363Z,55.80
2017-05-03T20:20:31.870Z,61.45
2017-05-03T20:22:59.654Z,50.98
2017-05-03T20:25:27.366Z,58.33
2017-05-03T20:27:55.813Z,50.63
2017-05-03T20:30:23.335Z,58.15
2017-05-03T20:32:50.856Z,56.23
2017-05-03T20:35:19.177Z,52.97
2017-05-03T20:37:46.735Z,57.70
2017-05-03T20:40:14.287Z,57.73
2017-05-03T20:42:41.788Z,49.58
2017-05-03T20:45:09.303Z,60.15
2017-05-03T20:47:36.919Z,62.40
2017-05-03T20:50:05.289Z,64.30
2017-05-03T20:52:32.928Z,60.70
2017-05-03T20:55:00.468Z,56.85
2017-05-03T20:57:28.302Z,54.63
2017-05-03T20:59:55.923Z,56.85
2017-05-03T21:02:23.696Z,54.53
2017-05-03T21:04:51.981Z,58.48
2017-05-03T21:07:20.249Z,64.02
2017-05-03T21:09:48.812Z,59.98
2017-05-03T21:12:16.352Z,63.82
2017-05-03T21:14:43.878Z,63.95
2017-05-03T21:17:11.595Z,60.80
2017-05-03T21:19:39.892Z,61.45
2017-05-03T21:22:07.427Z,58.83
2017-05-03T21:24:36.060Z,60.12
2017-05-03T21:27:03.612Z,55.80
2017-05-03T21:29:31.147Z,58.95
2017-05-03T21:31:58.663Z,67.87
2017-05-03T21:34:26.191Z,60.78
2017-05-03T21:36:53.755Z,60.28
2017-05-03T21:39:21.256Z,62.37
2017-05-03T21:41:49.564Z,56.88
2017-05-03T21:44:17.224Z,56.98
2017-05-03T21:46:44.968Z,59.10
2017-05-03T21:49:12.490Z,63.23
2017-05-03T21:51:40.338Z,64.08
2017-05-03T21:54:07.873Z,60.52
2017-05-03T21:56:35.441Z,71.22
2017-05-03T21:59:02.939Z,58.70
2017-05-03T22:01:31.270Z,65.88
2017-05-03T22:03:58.829Z,63.18
2017-05-03T22:06:26.412Z,61.08
2017-05-03T22:08:53.924Z,65.78
2017-05-03T22:11:21.598Z,59.43
2017-05-03T22:13:49.188Z,66.27
2017-05-03T22:16:16.769Z,59.95
2017-05-03T22:18:45.068Z,60.97
2017-05-03T22:21:12.859Z,57.28
2017-05-03T22:23:40.432Z,60.48
2017-05-03T22:26:08.155Z,60.87
2017-05-03T22:28:35.677Z,59.02
2017-05-03T22:31:03.183Z,62.90
2017-05-03T22:33:30.703Z,61.22
2017-05-03T22:35:58.966Z,66.37
2017-05-03T22:38:26.613Z,63.53
2017-05-03T22:40:54.445Z,56.20
2017-05-03T22:43:22.092Z,60.82
2017-05-03T22:45:49.876Z,60.27
2017-05-03T22:48:17.675Z,58.37
2017-05-03T22:50:45.202Z,62.98
2017-05-03T22:53:12.780Z,64.70
2017-05-03T22:55:40.373Z,61.92
2017-05-03T22:58:07.912Z,61.18
2017-05-03T23:00:36.289Z,59.60
2017-05-03T23:03:04.811Z,67.07
2017-05-03T23:05:32.325Z,60.57
2017-05-03T23:08:00.823Z,65.47
2017-05-03T23:10:28.335Z,60.65
2017-05-03T23:12:55.922Z,62.05
2017-05-03T23:15:23.448Z,59.28
2017-05-03T23:17:50.955Z,61.47
2017-05-03T23:20:18.739Z,57.85
2017-05-03T23:22:46.240Z,58.15
2017-05-03T23:25:14.219Z,59.72
2017-05-03T23:27:42.551Z,65.70
2017-05-03T23:30:10.063Z,61.42
2017-05-03T23:32:38.442Z,60.23
2017-05-03T23:35:06.840Z,60.15
2017-05-03T23:37:34.394Z,57.18
2017-05-03T23:40:02.046Z,54.50
2017-05-03T23:42:29.630Z,60.78
2017-05-03T23:44:57.569Z,55.42
2017-05-03T23:47:25.097Z,61.17
2017-05-03T23:49:52.984Z,58.17
2017-05-03T23:52:21.544Z,55.35
2017-05-03T23:54:49.347Z,59.65
2017-05-03T23:57:16.871Z,59.25
2017-05-03T23:59:45.195Z,52.78
